Manaia — FGG5735 — position and weather

sailwx.info

Track history (hours):
 
Tides and Currents Weather Stations Pressure Air Temp Water Temp Dewpoint Dewpoint Depression Visibility Wind Speed Wind Dir Waves Ship Positions

Manaia

Last reported at 2017-Aug-29 14:40 UTC. Time now 2017-Sep-22 20:51 UTC.
Position N 47°35' W 003°02'.
Warning: this ship's position is 24 days out of date.

Length 11 m.

Type: Sailing vessel. MMSI: 227028470.

Date/timePositionNaut miles runAvg speedWind from/ knotsBaromVisibWave heightAir tempDewpointWater temp
2017-Aug-29 14:40N 47°35' W 003°02'0 0.0
2017-Aug-29 14:28N 47°35' W 003°02'1 1.8
2017-Aug-29 14:00N 47°35' W 003°01'1 2.8
2017-Aug-29 13:30N 47°33' W 003°01'2 3.3
2017-Aug-29 13:00N 47°32' W 003°03'2 3.3
2017-Aug-29 12:30N 47°31' W 003°04'2 3.4
2017-Aug-29 12:00N 47°30' W 003°02'2 3.8
2017-Aug-29 11:30N 47°32' W 003°02'1 2.7
2017-Aug-29 11:00N 47°33' W 003°02'1 1.1
2017-Aug-29 10:30N 47°33' W 003°01'1 2.4
2017-Aug-29 10:00N 47°35' W 003°01'1 1.6
2017-Aug-29 09:28N 47°35' W 003°02'0 0.0
2017-Aug-28 16:21N 47°35' W 003°02'0 0.0
2017-Aug-28 15:59N 47°35' W 003°02'0 0.6
2017-Aug-28 15:30N 47°35' W 003°01'2 3.2
2017-Aug-28 15:00N 47°34' W 003°00'1 2.6
2017-Aug-28 14:30N 47°32' W 002°60'1 1.4
2017-Aug-28 14:00N 47°33' W 003°01'0 1.0
2017-Aug-28 13:30N 47°33' W 003°00'2 3.3
2017-Aug-28 13:00N 47°35' W 003°01'1 0.0
2017-Aug-27 15:39N 47°35' W 003°02'0 0.0
2017-Aug-27 15:30N 47°35' W 003°02'2 4.1
2017-Aug-27 15:00N 47°33' W 003°00'2 4.5
2017-Aug-27 14:30N 47°31' W 002°60'1 2.2
2017-Aug-27 14:00N 47°32' W 003°00'1 2.4
2017-Aug-27 13:29N 47°34' W 003°01'1 3.1
2017-Aug-27 13:00N 47°35' W 003°01'  
2017-Aug-23 15:42N 47°35' W 003°02'0 0.0
2017-Aug-23 15:30N 47°35' W 003°02'2 3.2
2017-Aug-23 15:01N 47°34' W 003°01'2 4.4
2017-Aug-23 14:31N 47°32' W 003°03'1 0.8
2017-Aug-23 13:31N 47°32' W 003°04'2 3.1
2017-Aug-23 13:01N 47°33' W 003°02'2 4.9
2017-Aug-23 12:31N 47°35' W 003°01'1 1.1
2017-Aug-23 11:58N 47°35' W 003°02'0 0.0
2017-Aug-21 16:39N 47°35' W 003°02'0 0.0
2017-Aug-21 16:30N 47°35' W 003°02'1 2.2
2017-Aug-21 15:59N 47°34' W 003°01'1 2.5
2017-Aug-21 15:30N 47°33' W 003°00'1 3.0
2017-Aug-21 15:00N 47°32' W 002°60'1 2.0
2017-Aug-21 14:30N 47°31' W 002°60'1 1.9
2017-Aug-21 14:01N 47°32' W 002°60'2 3.5
2017-Aug-21 13:30N 47°33' W 003°01'0 0.9
2017-Aug-21 13:00N 47°34' W 003°00'1 2.7
2017-Aug-21 12:30N 47°35' W 003°01'1 1.0
2017-Aug-21 12:00N 47°35' W 003°02'0 0.0
2017-Aug-20 16:00N 47°35' W 003°02'1 2.0
2017-Aug-20 15:30N 47°35' W 003°01'2 4.3
2017-Aug-20 15:00N 47°32' W 003°00'1 2.2
2017-Aug-20 14:30N 47°33' W 003°01'1 1.1
2017-Aug-20 14:00N 47°34' W 003°00'  
Track history (hours):
 
Tides and Currents Weather Stations Pressure Air Temp Water Temp Dewpoint Dewpoint Depression Visibility Wind Speed Wind Dir Waves Ship Positions

Manaia

Last reported at 2017-Aug-29 14:40 UTC. Time now 2017-Sep-22 20:51 UTC.
Position N 47°35' W 003°02'.
Warning: this ship's position is 24 days out of date.

Length 11 m.

Type: Sailing vessel. MMSI: 227028470.

Date/timePositionNaut miles runAvg speedWind from/ knotsBaromVisibWave heightAir tempDewpointWater temp
2017-Aug-29 14:40N 47°35' W 003°02'0 0.0
2017-Aug-29 14:28N 47°35' W 003°02'1 1.8
2017-Aug-29 14:00N 47°35' W 003°01'1 2.8
2017-Aug-29 13:30N 47°33' W 003°01'2 3.3
2017-Aug-29 13:00N 47°32' W 003°03'2 3.3
2017-Aug-29 12:30N 47°31' W 003°04'2 3.4
2017-Aug-29 12:00N 47°30' W 003°02'2 3.8
2017-Aug-29 11:30N 47°32' W 003°02'1 2.7
2017-Aug-29 11:00N 47°33' W 003°02'1 1.1
2017-Aug-29 10:30N 47°33' W 003°01'1 2.4
2017-Aug-29 10:00N 47°35' W 003°01'1 1.6
2017-Aug-29 09:28N 47°35' W 003°02'0 0.0
2017-Aug-28 16:21N 47°35' W 003°02'0 0.0
2017-Aug-28 15:59N 47°35' W 003°02'0 0.6
2017-Aug-28 15:30N 47°35' W 003°01'2 3.2
2017-Aug-28 15:00N 47°34' W 003°00'1 2.6
2017-Aug-28 14:30N 47°32' W 002°60'1 1.4
2017-Aug-28 14:00N 47°33' W 003°01'0 1.0
2017-Aug-28 13:30N 47°33' W 003°00'2 3.3
2017-Aug-28 13:00N 47°35' W 003°01'1 0.0
2017-Aug-27 15:39N 47°35' W 003°02'0 0.0
2017-Aug-27 15:30N 47°35' W 003°02'2 4.1
2017-Aug-27 15:00N 47°33' W 003°00'2 4.5
2017-Aug-27 14:30N 47°31' W 002°60'1 2.2
2017-Aug-27 14:00N 47°32' W 003°00'1 2.4
2017-Aug-27 13:29N 47°34' W 003°01'1 3.1
2017-Aug-27 13:00N 47°35' W 003°01'  
2017-Aug-23 15:42N 47°35' W 003°02'0 0.0
2017-Aug-23 15:30N 47°35' W 003°02'2 3.2
2017-Aug-23 15:01N 47°34' W 003°01'2 4.4
2017-Aug-23 14:31N 47°32' W 003°03'1 0.8
2017-Aug-23 13:31N 47°32' W 003°04'2 3.1
2017-Aug-23 13:01N 47°33' W 003°02'2 4.9
2017-Aug-23 12:31N 47°35' W 003°01'1 1.1
2017-Aug-23 11:58N 47°35' W 003°02'0 0.0
2017-Aug-21 16:39N 47°35' W 003°02'0 0.0
2017-Aug-21 16:30N 47°35' W 003°02'1 2.2
2017-Aug-21 15:59N 47°34' W 003°01'1 2.5
2017-Aug-21 15:30N 47°33' W 003°00'1 3.0
2017-Aug-21 15:00N 47°32' W 002°60'1 2.0
2017-Aug-21 14:30N 47°31' W 002°60'1 1.9
2017-Aug-21 14:01N 47°32' W 002°60'2 3.5
2017-Aug-21 13:30N 47°33' W 003°01'0 0.9
2017-Aug-21 13:00N 47°34' W 003°00'1 2.7
2017-Aug-21 12:30N 47°35' W 003°01'1 1.0
2017-Aug-21 12:00N 47°35' W 003°02'0 0.0
2017-Aug-20 16:00N 47°35' W 003°02'1 2.0
2017-Aug-20 15:30N 47°35' W 003°01'2 4.3
2017-Aug-20 15:00N 47°32' W 003°00'1 2.2
2017-Aug-20 14:30N 47°33' W 003°01'1 1.1
2017-Aug-20 14:00N 47°34' W 003°00'  

Dump ship's entire track history